Jorge Wilsterman International Airport

Airport
ICAO code: 
SLCB
IATA Code: 
CBB
Summary
ICAO Region: 
CARSAM
Territory: 
Location: 
Cochabamba, Cochabamba
Serving: 
Cochabamba
Elevation: 
8360 ft
Coordinates: 
Aerial View: 
17° 25' 15.809" S, 66° 10' 37.61" W
Metar
Observation
SLCB 190700Z 00000KT 9999 FEW030 BKN200 13/11 Q1025
Station
Cochabamba
Date/Time
2022-01-19 07:00:00
Wind direction
Wind speed
00 kts
Lowest cloud amount
few clouds
Temperature
13°C
Dew point
11°C
Humidity
87%
QNH
1025 hPa
Weather condition
n/a

A high elevation international airport serving Cochabamba, the capital of the Cochabamba Department of Bolivia.

Climatology

Semi-arid climate (Köppen climate classification BSk).

Runways

Designator Length Width Surface Rops
4/22 2649 45 ASP Yes/Yes
14/32 3798 45 ASP Yes/Yes
Airport map: 
Aerial View: 

SKYbrary Partners:

Safety knowledge contributed by: